Аэропорт
Сыктывкар (UUYY)

 UUYY / SCW
ЗЦ Санкт-Петербург
Сыктывкар (UUYY)
Сыктывкар (UUYY)
 61.64700, 50.84510  / 342 ft

 UUYY 211300Z 21002MPS 9000 -SHRA SCT007 BKN020CB 02/02 Q1021 R36/29//51 NOSIG RMK QFE756/1009
 UUYY 202300Z 2100/2124 28003MPS 5000 -SHRA BR BKN006 BKN017CB TEMPO 2100/2106 0300 -SHRA FG BKN002 BKN015CB TEMPO 2106/2109 2100 -SHRA BKN003 BKN015CB FM210900 32003MPS 6000 BKN011 SCT020CB TEMPO 2109/2112 3100 -SHRA FEW005 BKN015CB TEMPO 2113/2124 24003MPS 3100 BR FEW007 BKN015CB
показать схемы

Аэродром "Сыктывкар" (UUYY)

Рекомендованные сценарии:

FS2004 от Aniter

P3D/FSX от Aniter 

Схемы:

АИП

Средства связи ОВД:

UUYY_R_APP - Сивкар-Круг - 124.600

UUYY_TWR - Сивкар-Старт - 124.600

UUYY_ATIS - Сивкар-АТИС (русский, английский) - 126.600



2017 © VATRUS division